sensor_id;sensor_type;location;lat;lon;timestamp;temperature;humidity
728;DHT22;347;48.780;9.158;2023-07-02T00:01:04;18.90;43.40
728;DHT22;347;48.780;9.158;2023-07-02T00:03:30;18.90;43.00
728;DHT22;347;48.780;9.158;2023-07-02T00:05:55;18.90;42.10
728;DHT22;347;48.780;9.158;2023-07-02T00:08:22;18.90;41.30
728;DHT22;347;48.780;9.158;2023-07-02T00:10:48;18.90;41.80
728;DHT22;347;48.780;9.158;2023-07-02T00:13:14;19.00;42.20
728;DHT22;347;48.780;9.158;2023-07-02T00:15:40;19.00;41.50
728;DHT22;347;48.780;9.158;2023-07-02T00:18:06;18.90;41.00
728;DHT22;347;48.780;9.158;2023-07-02T00:20:33;18.90;41.30
728;DHT22;347;48.780;9.158;2023-07-02T00:23:06;19.00;41.40
728;DHT22;347;48.780;9.158;2023-07-02T00:25:34;18.90;39.70
728;DHT22;347;48.780;9.158;2023-07-02T00:27:59;19.00;41.10
728;DHT22;347;48.780;9.158;2023-07-02T00:30:25;19.20;40.40
728;DHT22;347;48.780;9.158;2023-07-02T00:32:50;19.10;40.60
728;DHT22;347;48.780;9.158;2023-07-02T00:35:16;19.00;40.40
728;DHT22;347;48.780;9.158;2023-07-02T00:37:41;18.90;39.60
728;DHT22;347;48.780;9.158;2023-07-02T00:40:07;18.90;40.40
728;DHT22;347;48.780;9.158;2023-07-02T00:42:33;18.90;39.40
728;DHT22;347;48.780;9.158;2023-07-02T00:44:59;18.80;39.90
728;DHT22;347;48.780;9.158;2023-07-02T00:47:28;18.70;40.70
728;DHT22;347;48.780;9.158;2023-07-02T00:49:55;18.80;40.50
728;DHT22;347;48.780;9.158;2023-07-02T00:52:20;18.80;41.00
728;DHT22;347;48.780;9.158;2023-07-02T00:54:46;18.80;40.60
728;DHT22;347;48.780;9.158;2023-07-02T00:57:12;18.90;39.40
728;DHT22;347;48.780;9.158;2023-07-02T00:59:37;18.90;38.30
728;DHT22;347;48.780;9.158;2023-07-02T01:02:04;18.90;38.00
728;DHT22;347;48.780;9.158;2023-07-02T01:04:30;19.10;39.10
728;DHT22;347;48.780;9.158;2023-07-02T01:06:56;19.10;39.50
728;DHT22;347;48.780;9.158;2023-07-02T01:09:25;19.10;38.00
728;DHT22;347;48.780;9.158;2023-07-02T01:11:59;19.10;37.30
728;DHT22;347;48.780;9.158;2023-07-02T01:14:32;19.00;37.70
728;DHT22;347;48.780;9.158;2023-07-02T01:16:59;19.10;37.80
728;DHT22;347;48.780;9.158;2023-07-02T01:19:48;19.00;37.20
728;DHT22;347;48.780;9.158;2023-07-02T01:22:19;19.00;37.50
728;DHT22;347;48.780;9.158;2023-07-02T01:24:45;19.00;37.10
728;DHT22;347;48.780;9.158;2023-07-02T01:27:12;19.20;37.40
728;DHT22;347;48.780;9.158;2023-07-02T01:29:38;19.20;36.60
728;DHT22;347;48.780;9.158;2023-07-02T01:32:05;19.10;37.20
728;DHT22;347;48.780;9.158;2023-07-02T01:34:30;19.10;37.70
728;DHT22;347;48.780;9.158;2023-07-02T01:36:56;19.00;36.60
728;DHT22;347;48.780;9.158;2023-07-02T01:39:22;19.00;37.10
728;DHT22;347;48.780;9.158;2023-07-02T01:41:52;19.00;36.90
728;DHT22;347;48.780;9.158;2023-07-02T01:44:18;18.90;36.40
728;DHT22;347;48.780;9.158;2023-07-02T01:46:45;18.80;37.60
728;DHT22;347;48.780;9.158;2023-07-02T01:49:16;18.80;37.30
728;DHT22;347;48.780;9.158;2023-07-02T01:51:51;18.90;37.20
728;DHT22;347;48.780;9.158;2023-07-02T01:54:17;18.90;36.50
728;DHT22;347;48.780;9.158;2023-07-02T01:56:43;19.00;37.10
728;DHT22;347;48.780;9.158;2023-07-02T01:59:08;18.90;37.10
728;DHT22;347;48.780;9.158;2023-07-02T02:01:34;18.90;36.60
728;DHT22;347;48.780;9.158;2023-07-02T02:04:00;18.90;36.70
728;DHT22;347;48.780;9.158;2023-07-02T02:06:25;18.90;36.90
728;DHT22;347;48.780;9.158;2023-07-02T02:08:51;18.70;37.70
728;DHT22;347;48.780;9.158;2023-07-02T02:11:16;18.60;38.00
728;DHT22;347;48.780;9.158;2023-07-02T02:13:42;18.50;38.30
728;DHT22;347;48.780;9.158;2023-07-02T02:16:07;18.50;39.00
728;DHT22;347;48.780;9.158;2023-07-02T02:18:33;18.30;38.80
728;DHT22;347;48.780;9.158;2023-07-02T02:20:58;18.40;38.90
728;DHT22;347;48.780;9.158;2023-07-02T02:23:24;18.40;38.90
728;DHT22;347;48.780;9.158;2023-07-02T02:25:49;18.50;38.30
728;DHT22;347;48.780;9.158;2023-07-02T02:28:15;18.60;39.10
728;DHT22;347;48.780;9.158;2023-07-02T02:30:41;18.80;38.60
728;DHT22;347;48.780;9.158;2023-07-02T02:33:06;19.10;37.20
728;DHT22;347;48.780;9.158;2023-07-02T02:35:32;19.10;36.60
728;DHT22;347;48.780;9.158;2023-07-02T02:37:57;19.30;36.30
728;DHT22;347;48.780;9.158;2023-07-02T02:40:23;19.40;35.20
728;DHT22;347;48.780;9.158;2023-07-02T02:42:48;19.50;34.70
728;DHT22;347;48.780;9.158;2023-07-02T02:45:14;19.50;34.00
728;DHT22;347;48.780;9.158;2023-07-02T02:47:39;19.40;34.90
728;DHT22;347;48.780;9.158;2023-07-02T02:50:05;19.20;35.20
728;DHT22;347;48.780;9.158;2023-07-02T02:52:31;19.10;35.40
728;DHT22;347;48.780;9.158;2023-07-02T02:54:57;18.90;36.00
728;DHT22;347;48.780;9.158;2023-07-02T02:57:22;18.90;36.20
728;DHT22;347;48.780;9.158;2023-07-02T02:59:48;18.80;36.40
728;DHT22;347;48.780;9.158;2023-07-02T03:02:13;18.80;36.50
728;DHT22;347;48.780;9.158;2023-07-02T03:04:39;18.70;36.80
728;DHT22;347;48.780;9.158;2023-07-02T03:07:09;18.70;36.20
728;DHT22;347;48.780;9.158;2023-07-02T03:09:35;18.60;36.20
728;DHT22;347;48.780;9.158;2023-07-02T03:12:00;18.60;37.40
728;DHT22;347;48.780;9.158;2023-07-02T03:14:26;18.50;36.50
728;DHT22;347;48.780;9.158;2023-07-02T03:16:51;18.60;36.60
728;DHT22;347;48.780;9.158;2023-07-02T03:19:17;18.60;36.30
728;DHT22;347;48.780;9.158;2023-07-02T03:21:43;18.60;36.80
728;DHT22;347;48.780;9.158;2023-07-02T03:24:09;18.50;37.80
728;DHT22;347;48.780;9.158;2023-07-02T03:26:44;18.50;37.20
728;DHT22;347;48.780;9.158;2023-07-02T03:29:10;18.50;40.50
728;DHT22;347;48.780;9.158;2023-07-02T03:31:36;18.30;42.00
728;DHT22;347;48.780;9.158;2023-07-02T03:34:05;18.10;42.60
728;DHT22;347;48.780;9.158;2023-07-02T03:36:31;18.10;43.30
728;DHT22;347;48.780;9.158;2023-07-02T03:38:57;18.00;44.90
728;DHT22;347;48.780;9.158;2023-07-02T03:41:22;17.90;44.00
728;DHT22;347;48.780;9.158;2023-07-02T03:43:48;17.70;45.50
728;DHT22;347;48.780;9.158;2023-07-02T03:46:14;17.60;46.80
728;DHT22;347;48.780;9.158;2023-07-02T03:48:39;17.50;47.90
728;DHT22;347;48.780;9.158;2023-07-02T03:51:05;17.50;46.90
728;DHT22;347;48.780;9.158;2023-07-02T03:53:31;17.50;48.20
728;DHT22;347;48.780;9.158;2023-07-02T03:55:57;17.40;46.70
728;DHT22;347;48.780;9.158;2023-07-02T03:58:22;17.40;46.00
728;DHT22;347;48.780;9.158;2023-07-02T04:00:48;17.50;46.40
728;DHT22;347;48.780;9.158;2023-07-02T04:03:15;17.70;45.70
728;DHT22;347;48.780;9.158;2023-07-02T04:05:41;17.70;44.40
728;DHT22;347;48.780;9.158;2023-07-02T04:08:07;17.70;45.70
728;DHT22;347;48.780;9.158;2023-07-02T04:10:32;17.60;46.20
728;DHT22;347;48.780;9.158;2023-07-02T04:12:58;17.70;45.60
728;DHT22;347;48.780;9.158;2023-07-02T04:15:23;17.60;42.20
728;DHT22;347;48.780;9.158;2023-07-02T04:17:51;17.50;43.20
728;DHT22;347;48.780;9.158;2023-07-02T04:20:16;17.50;43.20
728;DHT22;347;48.780;9.158;2023-07-02T04:22:44;17.50;43.20
728;DHT22;347;48.780;9.158;2023-07-02T04:25:11;17.40;43.10
728;DHT22;347;48.780;9.158;2023-07-02T04:27:36;17.40;42.90
728;DHT22;347;48.780;9.158;2023-07-02T04:30:02;17.60;42.40
728;DHT22;347;48.780;9.158;2023-07-02T04:32:28;17.70;40.00
728;DHT22;347;48.780;9.158;2023-07-02T04:34:54;17.70;40.50
728;DHT22;347;48.780;9.158;2023-07-02T04:37:19;17.60;40.10
728;DHT22;347;48.780;9.158;2023-07-02T04:39:47;17.50;41.10
728;DHT22;347;48.780;9.158;2023-07-02T04:42:12;17.50;40.60
728;DHT22;347;48.780;9.158;2023-07-02T04:44:40;17.40;40.50
728;DHT22;347;48.780;9.158;2023-07-02T04:47:08;17.40;41.40
728;DHT22;347;48.780;9.158;2023-07-02T04:49:34;17.30;41.10
728;DHT22;347;48.780;9.158;2023-07-02T04:52:00;17.20;42.40
728;DHT22;347;48.780;9.158;2023-07-02T04:54:25;17.40;41.20
728;DHT22;347;48.780;9.158;2023-07-02T04:56:51;17.60;40.90
728;DHT22;347;48.780;9.158;2023-07-02T04:59:16;17.60;41.30
728;DHT22;347;48.780;9.158;2023-07-02T05:01:42;17.50;42.70
728;DHT22;347;48.780;9.158;2023-07-02T05:04:10;17.50;42.50
728;DHT22;347;48.780;9.158;2023-07-02T05:06:36;17.50;42.30
728;DHT22;347;48.780;9.158;2023-07-02T05:09:02;17.60;40.60
728;DHT22;347;48.780;9.158;2023-07-02T05:11:28;17.60;41.60
728;DHT22;347;48.780;9.158;2023-07-02T05:13:53;17.50;40.70
728;DHT22;347;48.780;9.158;2023-07-02T05:16:19;17.50;41.00
728;DHT22;347;48.780;9.158;2023-07-02T05:18:44;17.60;40.40
728;DHT22;347;48.780;9.158;2023-07-02T05:21:10;17.70;40.90
728;DHT22;347;48.780;9.158;2023-07-02T05:23:36;17.70;39.60
728;DHT22;347;48.780;9.158;2023-07-02T05:26:01;17.70;39.60
728;DHT22;347;48.780;9.158;2023-07-02T05:28:27;17.80;38.30
728;DHT22;347;48.780;9.158;2023-07-02T05:30:52;17.80;38.30
728;DHT22;347;48.780;9.158;2023-07-02T05:33:18;17.70;38.20
728;DHT22;347;48.780;9.158;2023-07-02T05:35:44;17.80;38.30
728;DHT22;347;48.780;9.158;2023-07-02T05:38:11;17.80;38.30
728;DHT22;347;48.780;9.158;2023-07-02T05:40:37;17.70;37.30
728;DHT22;347;48.780;9.158;2023-07-02T05:43:02;17.80;37.30
728;DHT22;347;48.780;9.158;2023-07-02T05:45:28;18.00;36.90
728;DHT22;347;48.780;9.158;2023-07-02T05:47:54;18.00;36.00
728;DHT22;347;48.780;9.158;2023-07-02T05:50:20;18.10;35.60
728;DHT22;347;48.780;9.158;2023-07-02T05:52:45;18.10;35.10
728;DHT22;347;48.780;9.158;2023-07-02T05:55:11;18.00;35.40
728;DHT22;347;48.780;9.158;2023-07-02T05:57:37;17.90;36.00
728;DHT22;347;48.780;9.158;2023-07-02T06:00:06;17.90;37.10
728;DHT22;347;48.780;9.158;2023-07-02T06:02:32;17.90;36.00
728;DHT22;347;48.780;9.158;2023-07-02T06:04:58;17.90;35.50
728;DHT22;347;48.780;9.158;2023-07-02T06:07:26;18.00;35.40
728;DHT22;347;48.780;9.158;2023-07-02T06:09:52;18.10;34.70
728;DHT22;347;48.780;9.158;2023-07-02T06:12:17;18.10;34.10
728;DHT22;347;48.780;9.158;2023-07-02T06:14:43;18.30;33.20
728;DHT22;347;48.780;9.158;2023-07-02T06:17:08;18.30;33.00
728;DHT22;347;48.780;9.158;2023-07-02T06:19:36;18.40;32.50
728;DHT22;347;48.780;9.158;2023-07-02T06:22:01;18.50;31.40
728;DHT22;347;48.780;9.158;2023-07-02T06:24:27;18.60;31.20
728;DHT22;347;48.780;9.158;2023-07-02T06:26:53;18.70;30.00
728;DHT22;347;48.780;9.158;2023-07-02T06:29:18;18.80;30.10
728;DHT22;347;48.780;9.158;2023-07-02T06:31:44;18.80;29.80
728;DHT22;347;48.780;9.158;2023-07-02T06:34:09;18.70;29.10
728;DHT22;347;48.780;9.158;2023-07-02T06:36:35;18.80;29.10
728;DHT22;347;48.780;9.158;2023-07-02T06:39:00;18.90;28.80
728;DHT22;347;48.780;9.158;2023-07-02T06:41:26;18.80;28.30
728;DHT22;347;48.780;9.158;2023-07-02T06:43:52;18.90;28.80
728;DHT22;347;48.780;9.158;2023-07-02T06:46:17;18.90;27.90
728;DHT22;347;48.780;9.158;2023-07-02T06:48:43;19.00;27.70
728;DHT22;347;48.780;9.158;2023-07-02T06:51:08;19.00;28.30
728;DHT22;347;48.780;9.158;2023-07-02T06:53:35;19.00;27.80
728;DHT22;347;48.780;9.158;2023-07-02T06:56:02;19.00;27.60
728;DHT22;347;48.780;9.158;2023-07-02T06:58:27;19.00;27.70
728;DHT22;347;48.780;9.158;2023-07-02T07:00:53;19.10;27.60
728;DHT22;347;48.780;9.158;2023-07-02T07:03:18;19.00;27.50
728;DHT22;347;48.780;9.158;2023-07-02T07:05:44;19.00;27.50
728;DHT22;347;48.780;9.158;2023-07-02T07:08:10;19.00;28.40
728;DHT22;347;48.780;9.158;2023-07-02T07:10:35;18.90;27.50
728;DHT22;347;48.780;9.158;2023-07-02T07:13:02;19.00;28.10
728;DHT22;347;48.780;9.158;2023-07-02T07:15:32;18.90;27.70
728;DHT22;347;48.780;9.158;2023-07-02T07:17:57;19.00;27.10
728;DHT22;347;48.780;9.158;2023-07-02T07:20:23;19.00;26.40
728;DHT22;347;48.780;9.158;2023-07-02T07:22:48;19.00;26.50
728;DHT22;347;48.780;9.158;2023-07-02T07:25:14;19.10;26.40
728;DHT22;347;48.780;9.158;2023-07-02T07:27:40;19.10;25.40
728;DHT22;347;48.780;9.158;2023-07-02T07:30:06;19.30;25.40
728;DHT22;347;48.780;9.158;2023-07-02T07:32:31;19.30;24.10
728;DHT22;347;48.780;9.158;2023-07-02T07:34:57;19.40;23.00
728;DHT22;347;48.780;9.158;2023-07-02T07:37:23;19.50;23.40
728;DHT22;347;48.780;9.158;2023-07-02T07:39:50;19.60;23.70
728;DHT22;347;48.780;9.158;2023-07-02T07:42:16;19.70;23.40
728;DHT22;347;48.780;9.158;2023-07-02T07:44:44;19.70;22.20
728;DHT22;347;48.780;9.158;2023-07-02T07:47:09;19.70;22.30
728;DHT22;347;48.780;9.158;2023-07-02T07:49:35;19.80;21.60
728;DHT22;347;48.780;9.158;2023-07-02T07:52:01;19.80;21.60
728;DHT22;347;48.780;9.158;2023-07-02T07:54:26;19.90;21.60
728;DHT22;347;48.780;9.158;2023-07-02T07:56:52;19.90;21.60
728;DHT22;347;48.780;9.158;2023-07-02T07:59:17;20.00;21.40
728;DHT22;347;48.780;9.158;2023-07-02T08:01:43;19.90;21.70
728;DHT22;347;48.780;9.158;2023-07-02T08:04:08;19.90;21.30
728;DHT22;347;48.780;9.158;2023-07-02T08:06:34;19.90;21.60
728;DHT22;347;48.780;9.158;2023-07-02T08:08:59;19.90;21.10
728;DHT22;347;48.780;9.158;2023-07-02T08:11:25;20.00;21.40
728;DHT22;347;48.780;9.158;2023-07-02T08:13:50;20.10;20.80
728;DHT22;347;48.780;9.158;2023-07-02T08:16:16;20.00;20.70
728;DHT22;347;48.780;9.158;2023-07-02T08:18:42;20.00;20.90
728;DHT22;347;48.780;9.158;2023-07-02T08:21:07;20.00;20.70
728;DHT22;347;48.780;9.158;2023-07-02T08:23:33;19.90;20.60
728;DHT22;347;48.780;9.158;2023-07-02T08:25:58;20.00;21.00
728;DHT22;347;48.780;9.158;2023-07-02T08:28:24;20.00;20.30
728;DHT22;347;48.780;9.158;2023-07-02T08:30:49;20.10;20.30
728;DHT22;347;48.780;9.158;2023-07-02T08:33:15;20.20;20.00
728;DHT22;347;48.780;9.158;2023-07-02T08:35:40;20.30;20.10
728;DHT22;347;48.780;9.158;2023-07-02T08:38:06;20.30;19.60
728;DHT22;347;48.780;9.158;2023-07-02T08:40:33;20.50;19.20
728;DHT22;347;48.780;9.158;2023-07-02T08:42:59;20.60;18.10
728;DHT22;347;48.780;9.158;2023-07-02T08:45:25;20.60;18.80
728;DHT22;347;48.780;9.158;2023-07-02T08:47:50;20.70;18.40
728;DHT22;347;48.780;9.158;2023-07-02T08:50:19;20.70;18.90
728;DHT22;347;48.780;9.158;2023-07-02T08:52:45;20.70;18.30
728;DHT22;347;48.780;9.158;2023-07-02T08:55:10;20.80;17.90
728;DHT22;347;48.780;9.158;2023-07-02T08:57:36;20.90;17.10
728;DHT22;347;48.780;9.158;2023-07-02T09:00:08;21.00;16.80
728;DHT22;347;48.780;9.158;2023-07-02T09:02:34;21.20;15.60
728;DHT22;347;48.780;9.158;2023-07-02T09:05:01;21.20;15.20
728;DHT22;347;48.780;9.158;2023-07-02T09:07:27;21.20;14.50
728;DHT22;347;48.780;9.158;2023-07-02T09:09:52;21.30;14.40
728;DHT22;347;48.780;9.158;2023-07-02T09:12:31;21.40;14.60
728;DHT22;347;48.780;9.158;2023-07-02T09:15:00;21.60;14.90
728;DHT22;347;48.780;9.158;2023-07-02T09:17:30;21.70;14.60
728;DHT22;347;48.780;9.158;2023-07-02T09:19:58;21.70;14.20
728;DHT22;347;48.780;9.158;2023-07-02T09:22:26;21.80;15.70
728;DHT22;347;48.780;9.158;2023-07-02T09:24:56;21.80;14.60
728;DHT22;347;48.780;9.158;2023-07-02T09:27:33;21.80;15.00
728;DHT22;347;48.780;9.158;2023-07-02T09:30:12;21.80;14.70
728;DHT22;347;48.780;9.158;2023-07-02T09:32:42;21.90;14.40
728;DHT22;347;48.780;9.158;2023-07-02T09:35:07;21.90;14.40
728;DHT22;347;48.780;9.158;2023-07-02T09:37:33;21.90;14.40
728;DHT22;347;48.780;9.158;2023-07-02T09:40:00;22.00;14.40
728;DHT22;347;48.780;9.158;2023-07-02T09:42:27;22.10;14.30
728;DHT22;347;48.780;9.158;2023-07-02T09:44:58;22.30;14.10
728;DHT22;347;48.780;9.158;2023-07-02T09:47:25;22.20;14.20
728;DHT22;347;48.780;9.158;2023-07-02T09:49:59;22.20;14.50
728;DHT22;347;48.780;9.158;2023-07-02T09:52:26;22.20;14.00
728;DHT22;347;48.780;9.158;2023-07-02T09:54:53;22.20;13.90
728;DHT22;347;48.780;9.158;2023-07-02T09:57:18;22.20;14.00
728;DHT22;347;48.780;9.158;2023-07-02T09:59:44;22.30;14.60
728;DHT22;347;48.780;9.158;2023-07-02T10:02:10;22.40;14.30
728;DHT22;347;48.780;9.158;2023-07-02T10:04:46;22.50;14.00
728;DHT22;347;48.780;9.158;2023-07-02T10:07:13;22.70;13.90
728;DHT22;347;48.780;9.158;2023-07-02T10:09:50;22.70;13.40
728;DHT22;347;48.780;9.158;2023-07-02T10:12:23;22.80;13.70
728;DHT22;347;48.780;9.158;2023-07-02T10:14:51;23.00;13.50
728;DHT22;347;48.780;9.158;2023-07-02T10:17:31;23.20;13.00
728;DHT22;347;48.780;9.158;2023-07-02T10:19:58;23.40;12.10
728;DHT22;347;48.780;9.158;2023-07-02T10:22:24;23.50;12.50
728;DHT22;347;48.780;9.158;2023-07-02T10:24:52;23.40;11.90
728;DHT22;347;48.780;9.158;2023-07-02T10:27:18;23.30;11.50
728;DHT22;347;48.780;9.158;2023-07-02T10:29:50;23.00;12.90
728;DHT22;347;48.780;9.158;2023-07-02T10:32:26;23.00;13.00
728;DHT22;347;48.780;9.158;2023-07-02T10:34:52;22.90;13.50
728;DHT22;347;48.780;9.158;2023-07-02T10:37:18;22.90;14.30
728;DHT22;347;48.780;9.158;2023-07-02T10:39:43;22.80;13.70
728;DHT22;347;48.780;9.158;2023-07-02T10:42:10;22.80;13.20
728;DHT22;347;48.780;9.158;2023-07-02T10:44:47;22.70;13.40
728;DHT22;347;48.780;9.158;2023-07-02T10:47:13;22.60;13.70
728;DHT22;347;48.780;9.158;2023-07-02T10:49:39;22.50;14.00
728;DHT22;347;48.780;9.158;2023-07-02T10:52:04;22.50;14.10
728;DHT22;347;48.780;9.158;2023-07-02T10:54:43;22.50;13.50
728;DHT22;347;48.780;9.158;2023-07-02T10:57:12;22.60;13.30
728;DHT22;347;48.780;9.158;2023-07-02T10:59:38;22.70;12.80
728;DHT22;347;48.780;9.158;2023-07-02T11:02:03;22.70;11.00
728;DHT22;347;48.780;9.158;2023-07-02T11:04:30;22.70;10.90
728;DHT22;347;48.780;9.158;2023-07-02T11:06:57;22.70;11.50
728;DHT22;347;48.780;9.158;2023-07-02T11:09:22;22.80;11.80
728;DHT22;347;48.780;9.158;2023-07-02T11:11:56;23.00;11.80
728;DHT22;347;48.780;9.158;2023-07-02T11:16:57;23.10;11.50
728;DHT22;347;48.780;9.158;2023-07-02T11:19:24;23.20;10.80
728;DHT22;347;48.780;9.158;2023-07-02T11:21:51;23.20;10.60
728;DHT22;347;48.780;9.158;2023-07-02T11:24:33;23.30;10.90
728;DHT22;347;48.780;9.158;2023-07-02T11:27:00;23.30;10.90
728;DHT22;347;48.780;9.158;2023-07-02T11:29:27;23.30;10.90
728;DHT22;347;48.780;9.158;2023-07-02T11:31:53;23.30;10.70
728;DHT22;347;48.780;9.158;2023-07-02T11:34:21;23.30;11.30
728;DHT22;347;48.780;9.158;2023-07-02T11:36:48;23.40;11.00
728;DHT22;347;48.780;9.158;2023-07-02T11:39:15;23.60;9.40
728;DHT22;347;48.780;9.158;2023-07-02T11:41:42;23.60;9.60
728;DHT22;347;48.780;9.158;2023-07-02T11:44:08;23.50;9.70
728;DHT22;347;48.780;9.158;2023-07-02T11:46:34;23.70;10.30
728;DHT22;347;48.780;9.158;2023-07-02T11:49:00;23.80;8.40
728;DHT22;347;48.780;9.158;2023-07-02T11:51:26;23.70;9.10
728;DHT22;347;48.780;9.158;2023-07-02T11:53:52;23.50;9.60
728;DHT22;347;48.780;9.158;2023-07-02T11:56:17;23.60;9.40
728;DHT22;347;48.780;9.158;2023-07-02T11:58:43;23.50;9.10
728;DHT22;347;48.780;9.158;2023-07-02T12:01:09;23.50;8.80
728;DHT22;347;48.780;9.158;2023-07-02T12:03:34;23.60;8.80
728;DHT22;347;48.780;9.158;2023-07-02T12:06:00;23.80;7.60
728;DHT22;347;48.780;9.158;2023-07-02T12:08:26;23.90;7.20
728;DHT22;347;48.780;9.158;2023-07-02T12:10:51;23.90;6.80
728;DHT22;347;48.780;9.158;2023-07-02T12:13:17;23.90;6.80
728;DHT22;347;48.780;9.158;2023-07-02T12:15:42;24.00;6.90
728;DHT22;347;48.780;9.158;2023-07-02T12:18:08;23.90;6.80
728;DHT22;347;48.780;9.158;2023-07-02T12:20:34;23.90;6.80
728;DHT22;347;48.780;9.158;2023-07-02T12:23:00;23.90;6.80
728;DHT22;347;48.780;9.158;2023-07-02T12:25:25;23.90;6.80
728;DHT22;347;48.780;9.158;2023-07-02T12:27:51;23.90;6.80
728;DHT22;347;48.780;9.158;2023-07-02T12:30:16;24.00;6.90
728;DHT22;347;48.780;9.158;2023-07-02T12:32:43;24.10;7.00
728;DHT22;347;48.780;9.158;2023-07-02T12:35:10;24.10;7.00
728;DHT22;347;48.780;9.158;2023-07-02T12:37:35;24.10;6.70
728;DHT22;347;48.780;9.158;2023-07-02T12:40:01;24.10;6.00
728;DHT22;347;48.780;9.158;2023-07-02T12:42:26;24.00;5.70
728;DHT22;347;48.780;9.158;2023-07-02T12:44:52;24.00;6.10
728;DHT22;347;48.780;9.158;2023-07-02T12:47:17;23.90;5.80
728;DHT22;347;48.780;9.158;2023-07-02T12:49:43;23.90;6.40
728;DHT22;347;48.780;9.158;2023-07-02T12:52:09;23.90;6.20
728;DHT22;347;48.780;9.158;2023-07-02T12:54:34;23.90;5.70
728;DHT22;347;48.780;9.158;2023-07-02T12:57:00;23.90;5.90
728;DHT22;347;48.780;9.158;2023-07-02T12:59:25;24.00;6.00
728;DHT22;347;48.780;9.158;2023-07-02T13:01:51;24.00;5.70
728;DHT22;347;48.780;9.158;2023-07-02T13:04:16;24.20;5.40
728;DHT22;347;48.780;9.158;2023-07-02T13:06:42;24.10;5.60
728;DHT22;347;48.780;9.158;2023-07-02T13:09:10;24.10;5.60
728;DHT22;347;48.780;9.158;2023-07-02T13:11:35;24.10;5.90
728;DHT22;347;48.780;9.158;2023-07-02T13:14:01;24.10;5.10
728;DHT22;347;48.780;9.158;2023-07-02T13:16:26;24.00;5.30
728;DHT22;347;48.780;9.158;2023-07-02T13:18:52;23.90;5.60
728;DHT22;347;48.780;9.158;2023-07-02T13:21:20;24.10;5.40
728;DHT22;347;48.780;9.158;2023-07-02T13:23:46;24.00;5.20
728;DHT22;347;48.780;9.158;2023-07-02T13:26:11;24.10;5.50
728;DHT22;347;48.780;9.158;2023-07-02T13:28:37;24.10;4.90
728;DHT22;347;48.780;9.158;2023-07-02T13:31:02;24.10;5.00
728;DHT22;347;48.780;9.158;2023-07-02T13:33:28;24.00;4.80
728;DHT22;347;48.780;9.158;2023-07-02T13:35:56;24.00;5.20
728;DHT22;347;48.780;9.158;2023-07-02T13:38:21;24.10;5.20
728;DHT22;347;48.780;9.158;2023-07-02T13:40:47;24.10;4.90
728;DHT22;347;48.780;9.158;2023-07-02T13:43:13;24.20;5.30
728;DHT22;347;48.780;9.158;2023-07-02T13:45:38;24.20;5.20
728;DHT22;347;48.780;9.158;2023-07-02T13:48:04;24.20;4.80
728;DHT22;347;48.780;9.158;2023-07-02T13:50:30;24.20;4.70
728;DHT22;347;48.780;9.158;2023-07-02T13:52:56;24.20;4.70
728;DHT22;347;48.780;9.158;2023-07-02T13:55:21;24.30;4.90
728;DHT22;347;48.780;9.158;2023-07-02T13:57:53;24.40;4.50
728;DHT22;347;48.780;9.158;2023-07-02T14:00:20;24.70;4.20
728;DHT22;347;48.780;9.158;2023-07-02T14:02:45;24.60;4.10
728;DHT22;347;48.780;9.158;2023-07-02T14:05:11;24.50;4.10
728;DHT22;347;48.780;9.158;2023-07-02T14:07:36;24.50;4.00
728;DHT22;347;48.780;9.158;2023-07-02T14:10:02;24.30;4.40
728;DHT22;347;48.780;9.158;2023-07-02T14:12:28;24.30;4.40
728;DHT22;347;48.780;9.158;2023-07-02T14:14:53;24.20;4.90
728;DHT22;347;48.780;9.158;2023-07-02T14:17:19;24.10;5.00
728;DHT22;347;48.780;9.158;2023-07-02T14:19:45;24.10;5.30
728;DHT22;347;48.780;9.158;2023-07-02T14:22:10;24.30;4.90
728;DHT22;347;48.780;9.158;2023-07-02T14:24:36;24.50;4.10
728;DHT22;347;48.780;9.158;2023-07-02T14:27:01;24.50;4.20
728;DHT22;347;48.780;9.158;2023-07-02T14:29:27;24.60;4.10
728;DHT22;347;48.780;9.158;2023-07-02T14:31:53;24.80;3.80
728;DHT22;347;48.780;9.158;2023-07-02T14:34:18;24.70;4.20
728;DHT22;347;48.780;9.158;2023-07-02T14:36:44;24.70;4.10
728;DHT22;347;48.780;9.158;2023-07-02T14:39:09;24.80;3.80
728;DHT22;347;48.780;9.158;2023-07-02T14:41:35;24.90;4.00
728;DHT22;347;48.780;9.158;2023-07-02T14:44:02;25.00;3.70
728;DHT22;347;48.780;9.158;2023-07-02T14:46:27;25.00;3.80
728;DHT22;347;48.780;9.158;2023-07-02T14:48:53;24.80;4.10
728;DHT22;347;48.780;9.158;2023-07-02T14:51:18;24.70;3.90
728;DHT22;347;48.780;9.158;2023-07-02T14:53:44;24.60;4.20
728;DHT22;347;48.780;9.158;2023-07-02T14:56:09;24.60;4.70
728;DHT22;347;48.780;9.158;2023-07-02T14:58:35;24.50;4.20
728;DHT22;347;48.780;9.158;2023-07-02T15:01:01;24.50;4.60
728;DHT22;347;48.780;9.158;2023-07-02T15:03:27;24.60;4.00
728;DHT22;347;48.780;9.158;2023-07-02T15:05:53;24.60;4.40
728;DHT22;347;48.780;9.158;2023-07-02T15:08:20;24.70;4.40
728;DHT22;347;48.780;9.158;2023-07-02T15:10:48;24.60;4.40
728;DHT22;347;48.780;9.158;2023-07-02T15:13:14;24.60;4.50
728;DHT22;347;48.780;9.158;2023-07-02T15:15:40;24.70;4.40
728;DHT22;347;48.780;9.158;2023-07-02T15:18:06;24.60;4.30
728;DHT22;347;48.780;9.158;2023-07-02T15:20:33;24.60;4.70
728;DHT22;347;48.780;9.158;2023-07-02T15:22:59;24.60;5.00
728;DHT22;347;48.780;9.158;2023-07-02T15:25:25;24.60;4.50
728;DHT22;347;48.780;9.158;2023-07-02T15:27:50;24.50;4.70
728;DHT22;347;48.780;9.158;2023-07-02T15:30:16;24.50;4.90
728;DHT22;347;48.780;9.158;2023-07-02T15:32:41;24.50;5.30
728;DHT22;347;48.780;9.158;2023-07-02T15:35:07;24.40;5.70
728;DHT22;347;48.780;9.158;2023-07-02T15:37:33;24.40;5.30
728;DHT22;347;48.780;9.158;2023-07-02T15:39:58;24.40;5.60
728;DHT22;347;48.780;9.158;2023-07-02T15:42:24;24.40;5.40
728;DHT22;347;48.780;9.158;2023-07-02T15:44:55;24.50;5.20
728;DHT22;347;48.780;9.158;2023-07-02T15:47:20;24.40;5.00
728;DHT22;347;48.780;9.158;2023-07-02T15:49:46;24.30;5.30
728;DHT22;347;48.780;9.158;2023-07-02T15:52:11;24.30;5.60
728;DHT22;347;48.780;9.158;2023-07-02T15:54:37;24.40;5.20
728;DHT22;347;48.780;9.158;2023-07-02T15:57:03;24.50;5.10
728;DHT22;347;48.780;9.158;2023-07-02T15:59:28;24.40;4.90
728;DHT22;347;48.780;9.158;2023-07-02T16:01:54;24.50;5.20
728;DHT22;347;48.780;9.158;2023-07-02T16:04:19;24.50;4.90
728;DHT22;347;48.780;9.158;2023-07-02T16:06:45;24.50;5.00
728;DHT22;347;48.780;9.158;2023-07-02T16:09:11;24.40;5.30
728;DHT22;347;48.780;9.158;2023-07-02T16:11:37;24.40;5.40
728;DHT22;347;48.780;9.158;2023-07-02T16:14:08;24.30;5.50
728;DHT22;347;48.780;9.158;2023-07-02T16:16:37;24.40;5.40
728;DHT22;347;48.780;9.158;2023-07-02T16:19:08;24.40;5.30
728;DHT22;347;48.780;9.158;2023-07-02T16:21:34;24.40;5.30
728;DHT22;347;48.780;9.158;2023-07-02T16:24:05;24.30;5.20
728;DHT22;347;48.780;9.158;2023-07-02T16:26:30;24.30;5.40
728;DHT22;347;48.780;9.158;2023-07-02T16:28:57;24.30;5.60
728;DHT22;347;48.780;9.158;2023-07-02T16:31:23;24.30;5.40
728;DHT22;347;48.780;9.158;2023-07-02T16:33:49;24.30;5.30
728;DHT22;347;48.780;9.158;2023-07-02T16:36:16;24.30;5.40